Date,TemperatureHighF,TemperatureAvgF,TemperatureLowF,DewpointHighF,DewpointAvgF,DewpointLowF,HumidityHigh,HumidityAvg,HumidityLow,PressureMaxIn,PressureMinIn,WindSpeedMaxMPH,WindSpeedAvgMPH,GustSpeedMaxMPH,PrecipitationSumIn
2013-2-1,40,33,25,28,14,3,68,45,27,30.40,29.89,33,10,33,0.00
2013-2-2,25,25,24,9,9,8,51,50,49,30.40,30.39,4,1,7,0.00
2013-2-3,48,42,35,31,27,23,87,53,44,30.02,29.87,32,10,34,0.01
2013-2-4,47,42,30,29,26,21,70,53,43,30.16,30.00,16,5,16,0.01
2013-2-5,60,46,38,38,33,27,72,59,43,30.01,29.90,20,4,21,0.00
2013-2-6,59,49,36,35,30,24,82,51,27,30.27,29.98,17,4,17,0.00
2013-2-7,44,38,35,36,33,26,94,80,50,30.32,30.04,18,6,19,0.64
2013-2-8,56,43,35,46,36,28,95,78,41,30.10,29.87,28,9,29,0.17
2013-2-9,54,42,33,28,22,16,72,47,24,30.36,30.10,20,4,20,0.00
2013-2-10,52,43,36,41,23,18,89,46,28,30.47,30.19,18,4,19,0.11
2013-2-11,56,48,41,55,47,39,98,94,89,30.19,29.95,17,5,17,0.06
2013-2-12,55,50,44,51,34,26,96,56,34,30.12,29.92,17,4,19,0.00
2013-2-13,49,44,42,43,41,36,95,91,61,29.96,29.64,11,2,11,0.20
2013-2-14,50,45,35,34,32,29,82,63,52,30.08,30.00,17,5,18,0.00
2013-2-15,59,47,34,39,34,30,90,65,35,30.11,29.93,26,5,26,0.00
2013-2-16,42,36,34,34,31,30,89,85,69,29.99,29.83,15,3,18,0.00
2013-2-17,34,32,24,31,23,6,89,73,35,30.17,29.97,30,6,30,0.00
2013-2-18,51,44,24,27,23,13,61,43,31,30.42,30.22,22,8,24,0.00
2013-2-19,41,38,36,27,27,26,68,63,57,30.24,30.14,18,10,24,0.00
2013-2-20,49,43,34,16,12,8,47,28,22,30.11,30.05,23,9,23,0.00